DAL7892 KJFK-KBOS
Flight info
| Callsign | DAL7892 |
|---|---|
| Flight time | 0h 46m |
| Altitude | 21000 |
| Route | MERIT ROBUC3 |
| Aircraft | B738/M-SDE2E3FGHIRWXY/LB1 |
Departure
| Time | 2026-05-09 16:06 |
|---|---|
| Airport | John F. Kennedy International Airport (KJFK) |
Arrival
| Time | 2026-05-09 16:52 |
|---|---|
| Airport | Boston Logan International Airport (KBOS) |
| Time | Latitude | Longitude | Altitude | Speed | Heading |
|---|---|---|---|---|---|
| 2026-05-09 15:39 | 40.63782 | -73.78033 | 19 ft | 0 kts | 263° |
| 2026-05-09 15:55 | 40.63784 | -73.78016 | 22 ft | 3 kts | 262° |
| 2026-05-09 15:55 | 40.63787 | -73.77989 | 22 ft | 3 kts | 257° |
| 2026-05-09 15:56 | 40.63792 | -73.77964 | 22 ft | 3 kts | 250° |
| 2026-05-09 15:56 | 40.63800 | -73.77940 | 21 ft | 3 kts | 233° |
| 2026-05-09 15:56 | 40.63813 | -73.77923 | 22 ft | 3 kts | 192° |
| 2026-05-09 15:56 | 40.63820 | -73.77922 | 22 ft | 0 kts | 173° |
| 2026-05-09 15:58 | 40.63819 | -73.77922 | 22 ft | 0 kts | 173° |
| 2026-05-09 15:58 | 40.63806 | -73.77920 | 20 ft | 3 kts | 173° |
| 2026-05-09 15:59 | 40.63773 | -73.77914 | 20 ft | 6 kts | 173° |
| 2026-05-09 15:59 | 40.63720 | -73.77906 | 19 ft | 10 kts | 173° |
| 2026-05-09 15:59 | 40.63632 | -73.77892 | 19 ft | 15 kts | 173° |
| 2026-05-09 15:59 | 40.63559 | -73.77833 | 19 ft | 12 kts | 122° |
| 2026-05-09 16:00 | 40.63520 | -73.77735 | 19 ft | 12 kts | 96° |
| 2026-05-09 16:00 | 40.63528 | -73.77700 | 21 ft | 12 kts | 58° |
| 2026-05-09 16:00 | 40.63640 | -73.77602 | 19 ft | 11 kts | 31° |
| 2026-05-09 16:00 | 40.63707 | -73.77552 | 19 ft | 11 kts | 30° |
| 2026-05-09 16:01 | 40.63772 | -73.77502 | 19 ft | 11 kts | 30° |
| 2026-05-09 16:01 | 40.63835 | -73.77454 | 19 ft | 10 kts | 32° |
| 2026-05-09 16:01 | 40.63895 | -73.77405 | 20 ft | 10 kts | 30° |
| 2026-05-09 16:01 | 40.63954 | -73.77359 | 20 ft | 10 kts | 30° |
| 2026-05-09 16:02 | 40.64012 | -73.77314 | 19 ft | 9 kts | 31° |
| 2026-05-09 16:02 | 40.64147 | -73.77208 | 20 ft | 14 kts | 31° |
| 2026-05-09 16:02 | 40.64241 | -73.77133 | 20 ft | 18 kts | 31° |
| 2026-05-09 16:03 | 40.64354 | -73.77045 | 21 ft | 20 kts | 31° |
| 2026-05-09 16:03 | 40.64479 | -73.76989 | 19 ft | 19 kts | 3° |
| 2026-05-09 16:03 | 40.64586 | -73.76928 | 19 ft | 16 kts | 35° |
| 2026-05-09 16:03 | 40.64683 | -73.76859 | 19 ft | 16 kts | 30° |
| 2026-05-09 16:04 | 40.64772 | -73.76783 | 20 ft | 15 kts | 32° |
| 2026-05-09 16:04 | 40.64859 | -73.76713 | 22 ft | 14 kts | 30° |
| 2026-05-09 16:04 | 40.64942 | -73.76648 | 20 ft | 14 kts | 31° |
| 2026-05-09 16:04 | 40.65022 | -73.76584 | 20 ft | 13 kts | 31° |
| 2026-05-09 16:05 | 40.65094 | -73.76516 | 21 ft | 13 kts | 61° |
| 2026-05-09 16:05 | 40.65073 | -73.76410 | 22 ft | 12 kts | 121° |
| 2026-05-09 16:05 | 40.64999 | -73.76376 | 21 ft | 13 kts | 201° |
| 2026-05-09 16:05 | 40.64775 | -73.76548 | 21 ft | 73 kts | 211° |
| 2026-05-09 16:06 | 40.64140 | -73.77045 | 20 ft | 137 kts | 211° |
| 2026-05-09 16:06 | 40.63166 | -73.77743 | 227 ft | 173 kts | 208° |
| 2026-05-09 16:06 | 40.62160 | -73.78504 | 1255 ft | 158 kts | 212° |
| 2026-05-09 16:06 | 40.61198 | -73.79268 | 1993 ft | 172 kts | 212° |
| 2026-05-09 16:07 | 40.60081 | -73.80129 | 2265 ft | 198 kts | 212° |
| 2026-05-09 16:07 | 40.58829 | -73.81078 | 2618 ft | 214 kts | 212° |
| 2026-05-09 16:07 | 40.57424 | -73.81732 | 3339 ft | 219 kts | 188° |
| 2026-05-09 16:07 | 40.55915 | -73.81280 | 3947 ft | 235 kts | 157° |
| 2026-05-09 16:08 | 40.54693 | -73.79765 | 4369 ft | 263 kts | 129° |
| 2026-05-09 16:08 | 40.54084 | -73.77391 | 4867 ft | 289 kts | 99° |
| 2026-05-09 16:08 | 40.54371 | -73.74737 | 5695 ft | 300 kts | 71° |
| 2026-05-09 16:08 | 40.55510 | -73.72440 | 6598 ft | 303 kts | 45° |
| 2026-05-09 16:09 | 40.56580 | -73.71198 | 7131 ft | 306 kts | 39° |
| 2026-05-09 16:09 | 40.58269 | -73.69449 | 7841 ft | 312 kts | 38° |
| 2026-05-09 16:09 | 40.60004 | -73.67704 | 8619 ft | 316 kts | 38° |
| 2026-05-09 16:09 | 40.61775 | -73.65943 | 9372 ft | 322 kts | 38° |
| 2026-05-09 16:10 | 40.63555 | -73.64184 | 10053 ft | 327 kts | 37° |
| 2026-05-09 16:10 | 40.65406 | -73.62360 | 10497 ft | 342 kts | 37° |
| 2026-05-09 16:10 | 40.67379 | -73.60402 | 10672 ft | 366 kts | 37° |
| 2026-05-09 16:10 | 40.69468 | -73.58314 | 10861 ft | 387 kts | 37° |
| 2026-05-09 16:11 | 40.71644 | -73.56126 | 11302 ft | 399 kts | 37° |
| 2026-05-09 16:11 | 40.73858 | -73.53869 | 11894 ft | 404 kts | 37° |
| 2026-05-09 16:11 | 40.76125 | -73.51673 | 11984 ft | 404 kts | 29° |
| 2026-05-09 16:11 | 40.78617 | -73.50011 | 11997 ft | 400 kts | 21° |
| 2026-05-09 16:12 | 40.81166 | -73.48520 | 12005 ft | 401 kts | 20° |
| 2026-05-09 16:12 | 40.83722 | -73.47053 | 11992 ft | 400 kts | 20° |
| 2026-05-09 16:12 | 40.86273 | -73.45571 | 11981 ft | 400 kts | 21° |
| 2026-05-09 16:12 | 40.88819 | -73.44066 | 12032 ft | 405 kts | 21° |
| 2026-05-09 16:13 | 40.91394 | -73.42520 | 12743 ft | 407 kts | 21° |
| 2026-05-09 16:13 | 40.93971 | -73.40957 | 13454 ft | 410 kts | 21° |
| 2026-05-09 16:13 | 40.96572 | -73.39371 | 13814 ft | 411 kts | 20° |
| 2026-05-09 16:13 | 40.99160 | -73.37786 | 14180 ft | 409 kts | 20° |
| 2026-05-09 16:14 | 41.01738 | -73.36203 | 14545 ft | 410 kts | 20° |
| 2026-05-09 16:14 | 41.04337 | -73.34608 | 14913 ft | 412 kts | 20° |
| 2026-05-09 16:14 | 41.06944 | -73.33007 | 15282 ft | 414 kts | 20° |
| 2026-05-09 16:14 | 41.09561 | -73.31399 | 15655 ft | 415 kts | 20° |
| 2026-05-09 16:15 | 41.12188 | -73.29782 | 16024 ft | 417 kts | 20° |
| 2026-05-09 16:15 | 41.14827 | -73.28158 | 16409 ft | 419 kts | 20° |
| 2026-05-09 16:15 | 41.17485 | -73.26521 | 16839 ft | 425 kts | 20° |
| 2026-05-09 16:15 | 41.20195 | -73.24852 | 17409 ft | 432 kts | 20° |
| 2026-05-09 16:16 | 41.22888 | -73.23189 | 18093 ft | 434 kts | 20° |
| 2026-05-09 16:16 | 41.25637 | -73.21489 | 18699 ft | 438 kts | 20° |
| 2026-05-09 16:16 | 41.28406 | -73.19774 | 19263 ft | 441 kts | 20° |
| 2026-05-09 16:16 | 41.31206 | -73.18041 | 19828 ft | 444 kts | 20° |
| 2026-05-09 16:17 | 41.34008 | -73.16264 | 20394 ft | 450 kts | 24° |
| 2026-05-09 16:17 | 41.36510 | -73.13665 | 20924 ft | 464 kts | 46° |
| 2026-05-09 16:17 | 41.38301 | -73.10089 | 20962 ft | 474 kts | 66° |
| 2026-05-09 16:17 | 41.39249 | -73.05849 | 21004 ft | 483 kts | 82° |
| 2026-05-09 16:18 | 41.39696 | -73.01376 | 20992 ft | 491 kts | 85° |
| 2026-05-09 16:18 | 41.40110 | -72.96844 | 20980 ft | 492 kts | 85° |
| 2026-05-09 16:18 | 41.40540 | -72.92344 | 20955 ft | 488 kts | 84° |
| 2026-05-09 16:18 | 41.40989 | -72.87880 | 20975 ft | 485 kts | 84° |
| 2026-05-09 16:19 | 41.41451 | -72.83433 | 20973 ft | 484 kts | 84° |
| 2026-05-09 16:19 | 41.41921 | -72.78987 | 20983 ft | 485 kts | 84° |
| 2026-05-09 16:19 | 41.42394 | -72.74537 | 20992 ft | 486 kts | 84° |
| 2026-05-09 16:19 | 41.42868 | -72.70069 | 20990 ft | 488 kts | 84° |
| 2026-05-09 16:20 | 41.43342 | -72.65586 | 20992 ft | 489 kts | 84° |
| 2026-05-09 16:20 | 41.43813 | -72.61096 | 20993 ft | 490 kts | 84° |
| 2026-05-09 16:20 | 41.44282 | -72.56593 | 20982 ft | 491 kts | 84° |
| 2026-05-09 16:20 | 41.44751 | -72.52078 | 20981 ft | 492 kts | 84° |
| 2026-05-09 16:21 | 41.45219 | -72.47558 | 20983 ft | 493 kts | 84° |
| 2026-05-09 16:21 | 41.45686 | -72.43029 | 20994 ft | 493 kts | 84° |
| 2026-05-09 16:21 | 41.46149 | -72.38510 | 20996 ft | 493 kts | 84° |
| 2026-05-09 16:21 | 41.46607 | -72.34031 | 20986 ft | 493 kts | 84° |
| 2026-05-09 16:22 | 41.47069 | -72.29503 | 20992 ft | 493 kts | 84° |
| 2026-05-09 16:22 | 41.47533 | -72.24974 | 20978 ft | 492 kts | 83° |
| 2026-05-09 16:22 | 41.48260 | -72.20508 | 20980 ft | 493 kts | 73° |
| 2026-05-09 16:22 | 41.49485 | -72.16246 | 20980 ft | 493 kts | 63° |
| 2026-05-09 16:23 | 41.51039 | -72.12173 | 20993 ft | 492 kts | 61° |
| 2026-05-09 16:23 | 41.52609 | -72.08112 | 20994 ft | 493 kts | 62° |
| 2026-05-09 16:23 | 41.54142 | -72.04020 | 20994 ft | 493 kts | 63° |
| 2026-05-09 16:23 | 41.55629 | -71.99936 | 20978 ft | 488 kts | 64° |
| 2026-05-09 16:24 | 41.56918 | -71.95932 | 20696 ft | 479 kts | 68° |
| 2026-05-09 16:24 | 41.58113 | -71.91817 | 20219 ft | 472 kts | 69° |
| 2026-05-09 16:24 | 41.59286 | -71.87749 | 19650 ft | 467 kts | 68° |
| 2026-05-09 16:24 | 41.60464 | -71.83727 | 19120 ft | 462 kts | 68° |
| 2026-05-09 16:25 | 41.61637 | -71.79751 | 18584 ft | 457 kts | 68° |
| 2026-05-09 16:25 | 41.62791 | -71.75850 | 18023 ft | 445 kts | 68° |
| 2026-05-09 16:25 | 41.63901 | -71.72089 | 17835 ft | 424 kts | 68° |
| 2026-05-09 16:25 | 41.64967 | -71.68475 | 17636 ft | 413 kts | 68° |
| 2026-05-09 16:26 | 41.66004 | -71.64950 | 17458 ft | 402 kts | 68° |
| 2026-05-09 16:26 | 41.67011 | -71.61522 | 17296 ft | 391 kts | 68° |
| 2026-05-09 16:26 | 41.67993 | -71.58173 | 17105 ft | 383 kts | 68° |
| 2026-05-09 16:26 | 41.68957 | -71.54878 | 16758 ft | 379 kts | 68° |
| 2026-05-09 16:27 | 41.69914 | -71.51607 | 16410 ft | 375 kts | 68° |
| 2026-05-09 16:27 | 41.70860 | -71.48368 | 16064 ft | 373 kts | 68° |
| 2026-05-09 16:27 | 41.71801 | -71.45143 | 15717 ft | 371 kts | 68° |
| 2026-05-09 16:27 | 41.72799 | -71.41965 | 15347 ft | 369 kts | 62° |
| 2026-05-09 16:28 | 41.74045 | -71.38970 | 14983 ft | 367 kts | 58° |
| 2026-05-09 16:28 | 41.75360 | -71.36054 | 14625 ft | 365 kts | 57° |
| 2026-05-09 16:28 | 41.76654 | -71.33141 | 14273 ft | 363 kts | 58° |
| 2026-05-09 16:28 | 41.77918 | -71.30220 | 13908 ft | 361 kts | 59° |
| 2026-05-09 16:29 | 41.79165 | -71.27303 | 13511 ft | 360 kts | 59° |
| 2026-05-09 16:29 | 41.80400 | -71.24399 | 13124 ft | 358 kts | 59° |
| 2026-05-09 16:29 | 41.81628 | -71.21510 | 12758 ft | 355 kts | 60° |
| 2026-05-09 16:29 | 41.82847 | -71.18644 | 12404 ft | 353 kts | 60° |
| 2026-05-09 16:30 | 41.84046 | -71.15822 | 12113 ft | 342 kts | 60° |
| 2026-05-09 16:30 | 41.85199 | -71.13106 | 11999 ft | 331 kts | 60° |
| 2026-05-09 16:30 | 41.86334 | -71.10448 | 11865 ft | 327 kts | 59° |
| 2026-05-09 16:30 | 41.87472 | -71.07816 | 11720 ft | 327 kts | 59° |
| 2026-05-09 16:31 | 41.88627 | -71.05150 | 11589 ft | 333 kts | 60° |
| 2026-05-09 16:31 | 41.89781 | -71.02485 | 11447 ft | 336 kts | 60° |
| 2026-05-09 16:31 | 41.90922 | -70.99844 | 11301 ft | 336 kts | 60° |
| 2026-05-09 16:31 | 41.92084 | -70.97150 | 11132 ft | 335 kts | 60° |
| 2026-05-09 16:32 | 41.93249 | -70.94445 | 10994 ft | 334 kts | 60° |
| 2026-05-09 16:32 | 41.94034 | -70.92623 | 10890 ft | 334 kts | 60° |
| 2026-05-09 16:32 | 41.95569 | -70.89051 | 10681 ft | 333 kts | 60° |
| 2026-05-09 16:32 | 41.96723 | -70.86363 | 10519 ft | 332 kts | 60° |
| 2026-05-09 16:33 | 41.97872 | -70.83686 | 10379 ft | 330 kts | 60° |
| 2026-05-09 16:33 | 41.99015 | -70.81019 | 10242 ft | 329 kts | 60° |
| 2026-05-09 16:33 | 42.00152 | -70.78366 | 10106 ft | 326 kts | 60° |
| 2026-05-09 16:33 | 42.01308 | -70.75777 | 9892 ft | 321 kts | 53° |
| 2026-05-09 16:34 | 42.02737 | -70.73480 | 9573 ft | 319 kts | 45° |
| 2026-05-09 16:34 | 42.04260 | -70.71320 | 9253 ft | 318 kts | 44° |
| 2026-05-09 16:34 | 42.05774 | -70.69160 | 8951 ft | 318 kts | 45° |
| 2026-05-09 16:34 | 42.07281 | -70.66949 | 8669 ft | 323 kts | 46° |
| 2026-05-09 16:35 | 42.08796 | -70.64691 | 8362 ft | 327 kts | 46° |
| 2026-05-09 16:35 | 42.10367 | -70.62493 | 8035 ft | 325 kts | 35° |
| 2026-05-09 16:35 | 42.12337 | -70.61145 | 7734 ft | 313 kts | 10° |
| 2026-05-09 16:35 | 42.14434 | -70.60492 | 7466 ft | 307 kts | 5° |
| 2026-05-09 16:36 | 42.16529 | -70.59940 | 7181 ft | 306 kts | 4° |
| 2026-05-09 16:36 | 42.22738 | -70.58290 | 6338 ft | 300 kts | 5° |
| 2026-05-09 16:37 | 42.24778 | -70.57727 | 6048 ft | 299 kts | 6° |
| 2026-05-09 16:37 | 42.26810 | -70.57162 | 5754 ft | 297 kts | 6° |
| 2026-05-09 16:37 | 42.28823 | -70.56599 | 5469 ft | 292 kts | 7° |
| 2026-05-09 16:37 | 42.30789 | -70.56079 | 5176 ft | 283 kts | 1° |
| 2026-05-09 16:38 | 42.32637 | -70.56382 | 5016 ft | 256 kts | 330° |
| 2026-05-09 16:38 | 42.34113 | -70.57514 | 5003 ft | 236 kts | 314° |
| 2026-05-09 16:38 | 42.35316 | -70.58974 | 5011 ft | 231 kts | 308° |
| 2026-05-09 16:38 | 42.36461 | -70.60499 | 5024 ft | 231 kts | 308° |
| 2026-05-09 16:39 | 42.37598 | -70.62027 | 5010 ft | 230 kts | 309° |
| 2026-05-09 16:39 | 42.38730 | -70.63542 | 5005 ft | 229 kts | 309° |
| 2026-05-09 16:39 | 42.39860 | -70.65048 | 5001 ft | 228 kts | 309° |
| 2026-05-09 16:39 | 42.40992 | -70.66550 | 4997 ft | 227 kts | 309° |
| 2026-05-09 16:40 | 42.42117 | -70.68040 | 4996 ft | 226 kts | 309° |
| 2026-05-09 16:40 | 42.43226 | -70.69506 | 4997 ft | 226 kts | 309° |
| 2026-05-09 16:42 | 42.51179 | -70.80013 | 5007 ft | 232 kts | 309° |
| 2026-05-09 16:42 | 42.52510 | -70.81290 | 4984 ft | 243 kts | 336° |
| 2026-05-09 16:42 | 42.54190 | -70.81369 | 4995 ft | 247 kts | 10° |
| 2026-05-09 16:42 | 42.55805 | -70.80613 | 5003 ft | 244 kts | 16° |
| 2026-05-09 16:43 | 42.57393 | -70.79806 | 5003 ft | 243 kts | 16° |
| 2026-05-09 16:43 | 42.58980 | -70.79007 | 5002 ft | 243 kts | 16° |
| 2026-05-09 16:43 | 42.60563 | -70.78218 | 5007 ft | 242 kts | 17° |
| 2026-05-09 16:43 | 42.62150 | -70.77431 | 5002 ft | 245 kts | 16° |
| 2026-05-09 16:44 | 42.63798 | -70.76843 | 4922 ft | 245 kts | 354° |
| 2026-05-09 16:44 | 42.65352 | -70.77488 | 4822 ft | 229 kts | 317° |
| 2026-05-09 16:44 | 42.66352 | -70.79052 | 4732 ft | 215 kts | 290° |
| 2026-05-09 16:44 | 42.66721 | -70.80946 | 4638 ft | 204 kts | 266° |
| 2026-05-09 16:45 | 42.66456 | -70.82797 | 4567 ft | 200 kts | 243° |
| 2026-05-09 16:45 | 42.65687 | -70.84357 | 4476 ft | 200 kts | 224° |
| 2026-05-09 16:45 | 42.64532 | -70.85418 | 4418 ft | 202 kts | 209° |
| 2026-05-09 16:45 | 42.63286 | -70.86333 | 4307 ft | 205 kts | 209° |
| 2026-05-09 16:46 | 42.62027 | -70.87255 | 4223 ft | 206 kts | 209° |
| 2026-05-09 16:46 | 42.60770 | -70.88176 | 4148 ft | 203 kts | 208° |
| 2026-05-09 16:46 | 42.59548 | -70.89066 | 4043 ft | 196 kts | 209° |
| 2026-05-09 16:46 | 42.58341 | -70.89859 | 3884 ft | 192 kts | 204° |
| 2026-05-09 16:47 | 42.57115 | -70.90509 | 3725 ft | 188 kts | 201° |
| 2026-05-09 16:47 | 42.55884 | -70.91118 | 3506 ft | 189 kts | 200° |
| 2026-05-09 16:47 | 42.54667 | -70.91709 | 3281 ft | 188 kts | 199° |
| 2026-05-09 16:47 | 42.53450 | -70.92299 | 3063 ft | 183 kts | 199° |
| 2026-05-09 16:48 | 42.52275 | -70.92870 | 2860 ft | 175 kts | 198° |
| 2026-05-09 16:48 | 42.51163 | -70.93409 | 2647 ft | 163 kts | 198° |
| 2026-05-09 16:48 | 42.50170 | -70.93891 | 2497 ft | 142 kts | 197° |
| 2026-05-09 16:48 | 42.49277 | -70.94322 | 2309 ft | 133 kts | 196° |
| 2026-05-09 16:49 | 42.48411 | -70.94740 | 2192 ft | 133 kts | 196° |
| 2026-05-09 16:49 | 42.47534 | -70.95164 | 2051 ft | 134 kts | 195° |
| 2026-05-09 16:49 | 42.46651 | -70.95590 | 1894 ft | 135 kts | 195° |
| 2026-05-09 16:50 | 42.44880 | -70.96448 | 1639 ft | 138 kts | 195° |
| 2026-05-09 16:50 | 42.43980 | -70.96885 | 1443 ft | 136 kts | 195° |
| 2026-05-09 16:50 | 42.43092 | -70.97314 | 1256 ft | 136 kts | 195° |
| 2026-05-09 16:50 | 42.42191 | -70.97750 | 1075 ft | 139 kts | 196° |
| 2026-05-09 16:51 | 42.41271 | -70.98197 | 860 ft | 141 kts | 197° |
| 2026-05-09 16:51 | 42.40338 | -70.98650 | 691 ft | 145 kts | 196° |
| 2026-05-09 16:51 | 42.39380 | -70.99114 | 555 ft | 146 kts | 197° |
| 2026-05-09 16:51 | 42.38424 | -70.99577 | 314 ft | 149 kts | 198° |
| 2026-05-09 16:52 | 42.37456 | -71.00053 | 83 ft | 144 kts | 197° |
| 2026-05-09 16:52 | 42.36603 | -71.00457 | 24 ft | 96 kts | 201° |
| 2026-05-09 16:52 | 42.36242 | -71.00632 | 26 ft | 43 kts | 199° |
| 2026-05-09 16:52 | 42.36155 | -71.00832 | 28 ft | 26 kts | 293° |
| 2026-05-09 16:53 | 42.36226 | -71.01049 | 24 ft | 24 kts | 294° |
| 2026-05-09 16:53 | 42.36303 | -71.01245 | 24 ft | 23 kts | 304° |
| 2026-05-09 16:53 | 42.36356 | -71.01339 | 29 ft | 8 kts | 343° |
| 2026-05-09 16:53 | 42.36411 | -71.01301 | 27 ft | 11 kts | 30° |
| 2026-05-09 16:54 | 42.36498 | -71.01256 | 25 ft | 15 kts | 19° |
| 2026-05-09 16:54 | 42.36568 | -71.01224 | 27 ft | 17 kts | 19° |
| 2026-05-09 16:54 | 42.36734 | -71.01146 | 25 ft | 20 kts | 11° |
| 2026-05-09 16:54 | 42.36850 | -71.01230 | 29 ft | 20 kts | 315° |
| 2026-05-09 16:55 | 42.36946 | -71.01357 | 25 ft | 19 kts | 316° |
| 2026-05-09 16:55 | 42.37035 | -71.01480 | 28 ft | 17 kts | 300° |
| 2026-05-09 16:55 | 42.36991 | -71.01584 | 27 ft | 13 kts | 200° |
| 2026-05-09 16:55 | 42.36918 | -71.01644 | 29 ft | 10 kts | 213° |
| 2026-05-09 16:56 | 42.36889 | -71.01669 | 26 ft | 7 kts | 216° |
| 2026-05-09 16:56 | 42.36885 | -71.01728 | 25 ft | 7 kts | 292° |
| 2026-05-09 16:56 | 42.36899 | -71.01764 | 27 ft | 1 kts | 301° |
| 2026-05-09 16:56 | 42.36902 | -71.01771 | 27 ft | 0 kts | 301° |